Date,TemperatureHighF,TemperatureAvgF,TemperatureLowF,DewpointHighF,DewpointAvgF,DewpointLowF,HumidityHigh,HumidityAvg,HumidityLow,PressureMaxIn,PressureMinIn,WindSpeedMaxMPH,WindSpeedAvgMPH,GustSpeedMaxMPH,PrecipitationSumIn
2013-5-1,82,70,57,59,55,53,87,62,38,0.00,40.00,11,5,0,0.00
2013-5-2,79,70,57,56,54,52,87,60,40,0.00,40.00,10,5,0,0.00
2013-5-3,79,67,54,55,49,38,85,56,34,0.00,40.00,14,7,0,0.00
2013-5-4,74,64,54,46,40,31,69,44,22,0.00,40.00,14,8,0,0.00
2013-5-5,74,58,45,43,38,24,82,52,16,0.00,40.00,12,4,0,0.00
2013-5-6,76,58,44,44,39,29,89,55,17,0.00,40.00,8,3,0,0.00
2013-5-7,76,59,46,48,42,36,82,56,31,0.00,40.00,8,2,0,0.00
2013-5-8,78,66,48,53,47,41,93,54,27,0.00,40.00,10,2,0,0.00
2013-5-9,79,64,47,53,46,36,97,60,21,0.00,40.00,9,3,0,0.00
2013-5-10,64,47,41,50,41,-100,95,87,48,0.00,40.00,12,9,0,0.57
2013-5-11,53,45,40,47,43,35,95,90,79,0.00,40.00,17,7,0,0.04
2013-5-12,41,38,35,33,29,25,82,70,56,0.00,40.00,18,12,0,0.00
2013-5-13,53,39,27,28,26,21,92,64,28,0.00,40.00,11,5,0,0.00
2013-5-14,74,56,43,52,38,28,75,52,41,0.00,40.00,10,6,0,0.00
2013-5-15,77,65,55,55,48,35,83,58,22,0.00,40.00,14,8,0,0.00
2013-5-16,81,54,47,47,22,-100,88,54,21,0.00,40.00,10,4,0,0.00
2013-5-17,60,53,48,44,33,-100,75,62,48,0.00,40.00,8,5,0,0.00
2013-5-18,78,62,51,48,45,40,82,57,29,0.00,40.00,10,5,0,0.00
2013-5-19,85,69,50,60,53,46,94,59,36,0.00,40.00,9,3,0,0.00
2013-5-20,83,72,65,69,65,60,96,80,58,0.00,40.00,12,5,0,0.17
2013-5-21,75,69,63,66,64,61,97,82,65,0.00,40.00,11,5,0,0.13
2013-5-22,69,64,60,65,62,58,97,92,81,0.00,40.00,14,5,0,0.26
2013-5-23,61,52,42,60,49,36,97,91,72,0.00,40.00,13,8,0,0.69
2013-5-24,63,48,35,43,36,33,93,67,33,0.00,40.00,9,5,0,0.00
2013-5-25,63,51,37,45,38,35,98,66,37,0.00,40.00,4,2,0,0.00
2013-5-26,67,54,38,45,38,32,98,61,30,0.00,40.00,5,2,0,0.00
2013-5-27,63,52,42,48,42,40,95,71,42,0.00,40.00,14,7,0,0.00
2013-5-28,73,58,50,67,56,49,99,95,77,0.00,40.00,10,7,0,1.25
2013-5-29,74,67,61,67,64,59,96,91,76,0.00,40.00,11,5,0,0.55
2013-5-30,84,75,65,68,65,62,94,74,55,0.00,40.00,13,8,0,0.01
2013-5-31,78,72,65,67,64,63,94,76,61,0.00,40.00,11,8,0,0.11